UATG/GUW METAR and TAF weather

Enter ICAO airport designator
Station Type Date Time Source
UATG METAR 2019/08/24 17:30 UTC NOAA

UATG 241730Z 13002MPS CAVOK 28/07 Q1016 R14/CLRD70 NOSIG RMK QFE764/1019


Station Type Date Time Source
UATG Decoded METAR 2019/08/24 17:30 UTC NOAA

Station name not available
Aug 24, 2019 - 01:30 PM EDT / 2019.08.24 1730 UTC
Wind: from the SE (130 degrees) at 4 MPH (4 KT):0
Visibility: greater than 7 mile(s):0
Temperature: 82 F (28 C)
Dew Point: 44 F (7 C)
Relative Humidity: 26%
Pressure (altimeter): 30.00 in. Hg (1016 hPa)
ob: UATG 241730Z 13002MPS CAVOK 28/07 Q1016 R14/CLRD70 NOSIG RMK QFE764/1019
cycle: 17

Station Type Date Time Source
UATG TAF 2019/08/24 18:18 UTC NOAA

TAF UATG 241700Z 2418/2518 VRB03MPS CAVOK TX34/2511Z TN23/2501Z
BECMG 2505/2506 18006MPS
FM250800 22007MPS 9999 SCT050

Example: see airport list